Flight Track Log - Related Links

Times and Time Zones

All times are in EDT time to prevent confusion due to time zone crossing. See the FLG3729 flight status page for this flight to view local times or setup timezone preferences in your user account.

Time Position Orientation Groundspeed Altitude Reporting Facility
EDT Latitude Longitude Course Direction KTS km/h meters Rate Location/Type
Sat 06:08:37 42.7694 -73.8089 304° West 148 274 366  Level Boston Center
Sat 06:09:07 42.7881 -73.8094 359° North 155 286 610 575 Climbing Boston Center
Sat 06:10:06 42.8400 -73.8389 337° Northwest 210 389 1,219 610 Climbing Boston Center
Sat 06:11:04 42.8853 -73.8825 325° Northwest 242 447 1,798 732 Climbing Boston Center
Sat 06:12:06 42.9553 -73.9494 325° Northwest 262 486 2,682 792 Climbing Boston Center
Sat 06:13:04 43.0128 -73.9989 328° Northwest 270 501 3,383 533 Climbing Boston Center
Sat 06:14:00 42.8765 -74.5529 304° West  Level FlightAware Approximate
Sat 06:14:06 43.0931 -74.0750 325° Northwest 305 565 3,749  Level Boston Center
Sat 06:15:06 43.1631 -74.1422 325° Northwest 340 629 4,298 573 Climbing Boston Center
Sat 06:16:04 43.2492 -74.2303 323° Northwest 353 653 4,877 488 Climbing Boston Center
Sat 06:17:06 43.2578 -74.3444 276° West 321 594 5,273 381 Climbing Boston Center
Sat 06:18:04 43.2531 -74.4925 268° West 321 594 5,639 384 Climbing Boston Center
Sat 06:19:05 43.2483 -74.6322 267° West 348 644 6,035 405 Climbing Boston Center
Sat 06:20:06 43.2414 -74.7744 266° West 367 679 6,462 381 Climbing Boston Center
Sat 06:21:05 43.2344 -74.9139 266° West 372 689 6,797 344 Climbing Boston Center
Sat 06:22:03 43.2269 -75.0561 266° West 377 698 7,132 305 Climbing Boston Center
Sat 06:23:05 43.2181 -75.1725 264° West 377 698 7,407 302 Climbing Boston Center
Sat 06:24:04 43.2078 -75.3286 265° West 382 708 7,742 323 Climbing Boston Center
Sat 06:25:04 43.1981 -75.4678 265° West 382 708 8,047 272 Climbing Boston Center
Sat 06:26:05 43.1900 -75.6069 266° West 382 708 8,291 242 Climbing Boston Center
Sat 06:27:05 43.1800 -75.7461 264° West 377 698 8,534 123 Climbing Boston Center
Sat 06:28:04 43.1694 -75.8878 264° West 377 698 8,534  Level Boston Center
Sat 06:30:07 43.1428 -76.2181 264° West 390 723 8,534  Level Cleveland Center
Sat 06:31:07 43.1319 -76.3725 265° West 406 752 8,534  Level Cleveland Center
Sat 06:32:07 43.1186 -76.5297 263° West 417 772 8,534  Level Cleveland Center
Sat 06:33:07 43.1075 -76.6869 265° West 417 772 8,534  Level Cleveland Center
Sat 06:34:07 43.0933 -76.8300 262° West 422 782 8,534  Level Cleveland Center
Sat 06:35:07 43.0797 -76.9872 263° West 427 790 8,534  Level Cleveland Center
Sat 06:36:07 43.0678 -77.1500 264° West 427 790 8,534  Level Cleveland Center
Sat 06:37:07 43.0536 -77.3072 263° West 427 790 8,534  Level Cleveland Center
Sat 06:38:07 43.0392 -77.4642 263° West 427 790 8,534  Level Cleveland Center
Sat 06:39:07 43.0286 -77.6097 264° West 421 779 8,534  Level Cleveland Center
Sat 06:40:07 43.0153 -77.7494 263° West 399 739 8,534  Level Cleveland Center
Sat 06:41:07 43.0006 -77.9119 263° West 393 727 8,534  Level Cleveland Center
Sat 06:42:07 42.9872 -78.0628 263° West 393 727 8,534  Level Cleveland Center
Sat 06:43:07 42.9736 -78.2108 263° West 398 737 8,534  Level Cleveland Center
Sat 06:44:07 42.9600 -78.3592 263° West 398 737 8,534  Level Cleveland Center
Sat 06:45:07 42.9439 -78.5042 261° West 398 737 8,534  Level Cleveland Center
Sat 06:46:07 42.9297 -78.6522 263° West 398 737 8,534  Level Cleveland Center
Sat 06:47:07 42.9111 -78.7975 260° West 393 727 8,534  Level Cleveland Center
Sat 06:48:07 42.8864 -78.9453 257° West 393 727 8,534  Level Cleveland Center
Sat 06:49:08 42.8633 -79.0906 258° West 393 727 8,534  Level Cleveland Center
Sat 06:50:07 42.8442 -79.2381 260° West 393 727 8,534  Level Cleveland Center
Sat 06:51:07 42.8250 -79.3831 260° West 393 727 8,534  Level Cleveland Center
Sat 06:52:07 42.8036 -79.5306 259° West 393 727 8,534  Level Cleveland Center
Sat 06:53:07 42.7819 -79.6781 259° West 393 727 8,534  Level Cleveland Center
Sat 06:54:07 42.7600 -79.8253 259° West 393 727 8,534  Level Cleveland Center
Sat 06:55:07 42.7503 -79.9753 265° West 393 727 8,534  Level Cleveland Center
Sat 06:56:07 42.7406 -80.1111 264° West 398 737 8,534  Level Cleveland Center
Sat 06:57:07 42.7350 -80.2639 267° West 403 747 8,534  Level Cleveland Center
Sat 06:58:08 42.7289 -80.4108 267° West 403 747 8,534  Level Cleveland Center
Sat 06:59:08 42.7228 -80.5633 267° West 403 747 8,534  Level Cleveland Center
Sat 07:00:07 42.7144 -80.7131 266° West 397 735 8,534  Level Cleveland Center
Sat 07:01:07 42.7078 -80.8658 267° West 407 753 8,534 -91 Level Cleveland Center
Sat 07:02:07 42.6928 -81.0153 262° West 402 745 8,352 -244 Descending Cleveland Center
Sat 07:03:07 42.6756 -81.1733 262° West 402 745 8,047 -320 Descending Cleveland Center
Sat 07:04:07 42.6558 -81.3286 260° West 409 758 7,711 -320 Descending Cleveland Center
Sat 07:05:07 42.6403 -81.4722 262° West 402 745 7,407 -244 Descending Cleveland Center
Sat 07:06:07 42.6244 -81.6186 262° West 397 735 7,224 -366 Descending Cleveland Center
Sat 07:07:07 42.6042 -81.7678 260° West 397 735 6,675 -533 Descending Cleveland Center
Sat 07:08:07 42.5881 -81.9058 261° West 402 745 6,157 -564 Descending Cleveland Center
Sat 07:09:07 42.5697 -82.0436 260° West 402 745 5,547 -564 Descending Cleveland Center
Sat 07:10:07 42.5533 -82.1814 261° West 383 710 5,029 -585 Descending Cleveland Center
Sat 07:10:44 42.5436 -82.2769 262° West 357 661 4,602 -651 Descending Cleveland Center
Sat 07:11:51 42.5247 -82.4286 260° West 367 679 3,901 -443 Descending Cleveland Center
Sat 07:12:52 42.5017 -82.5603 257° West 356 660 3,658 -245 Descending Cleveland Center
Sat 07:13:58 42.4553 -82.6967 245° Southwest 346 641 3,383 -274 Descending Cleveland Center
Sat 07:14:59 42.4136 -82.8161 245° Southwest 354 655 3,078 -285 Descending Cleveland Center
Sat 07:16:00 42.3925 -82.9278 256° West 266 492 2,804 -457 Descending Cleveland Center
Sat 07:17:07 42.3778 -83.0314 259° West 306 566 2,103 -619 Descending Cleveland Center
Sat 07:18:07 42.3672 -83.1322 262° West 288 533 1,494 -570 Descending Cleveland Center
Sat 07:19:09 42.3339 -83.2319 246° West 247 457 945 -359 Descending Cleveland Center
Sat 07:20:04 42.2908 -83.2806 220° Southwest 191 354 792 -268 Descending Cleveland Center
Sat 07:21:05 42.2528 -83.3100 210° Southwest 147 272 427 -360 Descending Cleveland Center
Sat 07:23:00 42.2124 -83.3534 246° West  Level Estimated
Sat 07:30:00 42.2124 -83.3534 246° West  Level Estimated
Sat 07:31:00 42.2124 -83.3534 246° West  Level Estimated

Login

Don't have an account? Register now (free) for customized features, flight alerts, and more!